createdAt,value
2022-11-10T19:53:15.911Z,69.82
2022-11-10T19:56:08.406Z,63.15
2022-11-10T19:58:53.674Z,59.14
2022-11-10T20:01:38.985Z,55.51
2022-11-10T20:04:25.004Z,56.00
2022-11-10T20:07:29.159Z,55.74
2022-11-10T20:10:15.020Z,56.46
2022-11-10T20:13:00.815Z,55.64
2022-11-10T20:15:46.239Z,55.87
2022-11-10T20:18:31.857Z,55.02
2022-11-10T20:21:22.763Z,55.53
2022-11-10T20:24:08.454Z,54.61
2022-11-10T20:26:54.310Z,53.50
2022-11-10T20:29:40.005Z,53.48
2022-11-10T20:32:26.643Z,53.14
2022-11-10T20:35:12.175Z,52.87
2022-11-10T20:37:57.900Z,53.30
2022-11-10T20:40:45.009Z,52.62
2022-11-10T20:43:36.809Z,55.39
2022-11-10T20:46:48.149Z,53.86
2022-11-10T20:49:29.129Z,55.11
2022-11-10T20:52:14.520Z,54.47
2022-11-10T20:55:01.529Z,54.65
2022-11-10T20:57:47.177Z,54.98
2022-11-10T21:00:32.353Z,53.46
2022-11-10T21:03:18.139Z,54.32
2022-11-10T21:06:04.037Z,54.53
2022-11-10T21:08:49.293Z,55.33
2022-11-10T21:11:53.735Z,53.41
2022-11-10T21:14:39.131Z,52.57
2022-11-10T21:17:25.378Z,52.81
2022-11-10T21:20:11.284Z,53.69
2022-11-10T21:23:02.046Z,54.08
2022-11-10T21:25:54.130Z,53.88
2022-11-10T21:28:39.186Z,53.18
2022-11-10T21:31:24.689Z,53.81
2022-11-10T21:34:10.190Z,54.71
2022-11-10T21:36:55.786Z,54.04
2022-11-10T21:39:42.237Z,53.12
2022-11-10T21:42:30.495Z,52.82
2022-11-10T21:45:19.852Z,52.36
2022-11-10T21:48:05.640Z,52.88
2022-11-10T21:50:51.288Z,51.37
2022-11-10T21:53:39.082Z,50.84
2022-11-10T21:56:24.651Z,51.68
2022-11-10T21:59:10.027Z,51.18
2022-11-10T22:01:55.582Z,53.40
2022-11-10T22:04:40.778Z,53.44
2022-11-10T22:07:26.185Z,53.71
2022-11-10T22:10:30.160Z,54.52
2022-11-10T22:13:35.966Z,53.17
2022-11-10T22:16:46.585Z,54.11
2022-11-10T22:19:33.841Z,52.77
2022-11-10T22:22:19.052Z,52.05
2022-11-10T22:25:05.132Z,51.27
2022-11-10T22:27:50.146Z,51.50
2022-11-10T22:30:36.765Z,54.49
2022-11-10T22:33:27.724Z,54.11
2022-11-10T22:36:16.255Z,56.58
2022-11-10T22:39:03.843Z,58.33
2022-11-10T22:42:07.913Z,56.65
2022-11-10T22:44:53.441Z,55.50
2022-11-10T22:47:57.451Z,55.71
2022-11-10T22:50:42.838Z,59.64
2022-11-10T22:53:28.379Z,59.03
2022-11-10T22:56:13.623Z,57.93
2022-11-10T22:59:00.298Z,55.76
2022-11-10T23:01:46.505Z,55.89
2022-11-10T23:04:31.645Z,55.11
2022-11-10T23:07:16.971Z,56.95
2022-11-10T23:10:02.584Z,57.77
2022-11-10T23:12:47.788Z,55.26
2022-11-10T23:15:34.530Z,54.25
2022-11-10T23:18:20.406Z,54.42
2022-11-10T23:21:10.102Z,53.70
2022-11-10T23:23:56.305Z,53.04
2022-11-10T23:26:41.391Z,54.10
2022-11-10T23:29:26.645Z,56.26
2022-11-10T23:32:12.068Z,55.50
2022-11-10T23:34:57.496Z,56.77
2022-11-10T23:37:42.959Z,56.16
2022-11-10T23:40:28.253Z,55.04
2022-11-10T23:43:13.840Z,54.22
2022-11-10T23:46:06.966Z,55.29
2022-11-10T23:48:52.618Z,55.29
2022-11-10T23:51:37.991Z,56.03
2022-11-10T23:54:23.484Z,56.21
2022-11-10T23:57:08.933Z,56.11
2022-11-10T23:59:54.573Z,55.82
